Time,TemperatureF,DewpointF,PressureIn,WindDirection,WindDirectionDegrees,WindSpeedMPH,WindSpeedGustMPH,Humidity,HourlyPrecipIn,Conditions,Clouds,dailyrainin,SoftwareType,DateUTC
2013-03-10 15:02:00,50.0,50.0,29.66,North,0,0.0,14.0,100,0.00,,,0.00,,2013-03-10 20:02:00,
2013-03-10 15:12:00,50.0,50.0,29.66,North,0,0.0,14.0,100,0.00,,,0.00,,2013-03-10 20:12:00,
2013-03-10 15:22:00,50.0,50.0,29.67,North,0,0.0,0.0,100,0.00,,,0.00,,2013-03-10 20:22:00,
2013-03-10 15:32:00,50.0,50.0,29.67,North,0,0.0,7.0,100,0.00,,,0.00,,2013-03-10 20:32:00,
2013-03-10 15:42:00,50.0,50.0,29.67,North,0,0.0,7.0,100,0.00,,,0.00,,2013-03-10 20:42:00,
2013-03-10 15:53:00,50.0,50.0,29.67,North,0,0.0,0.0,100,0.00,,,0.00,,2013-03-10 20:53:00,
2013-03-10 16:02:00,50.0,50.0,29.67,North,0,0.0,0.0,100,0.00,,,0.00,,2013-03-10 21:02:00,
2013-03-10 16:12:00,50.0,50.0,29.67,North,0,0.0,0.0,100,0.00,,,0.00,,2013-03-10 21:12:00,
2013-03-10 16:22:00,50.0,50.0,29.66,North,0,0.0,0.0,100,0.00,,,0.00,,2013-03-10 21:22:00,
2013-03-10 16:32:00,50.0,50.0,29.65,North,0,0.0,0.0,100,0.00,,,0.00,,2013-03-10 21:32:00,
2013-03-10 16:43:00,50.0,50.0,29.65,North,0,0.0,0.0,100,0.00,,,0.00,,2013-03-10 21:43:00,
2013-03-10 16:53:00,49.0,49.0,29.64,North,0,0.0,0.0,100,0.00,,,0.00,,2013-03-10 21:53:00,
2013-03-10 17:02:00,49.0,49.0,29.64,North,0,0.0,0.0,100,0.00,,,0.00,,2013-03-10 22:02:00,
2013-03-10 17:12:00,49.0,49.0,29.64,North,0,0.0,0.0,100,0.00,,,0.00,,2013-03-10 22:12:00,
2013-03-10 17:22:00,49.0,49.0,29.62,North,0,0.0,0.0,100,0.00,,,0.00,,2013-03-10 22:22:00,
2013-03-10 17:32:00,49.0,49.0,29.57,East,83,3.0,6.0,100,0.00,,,0.00,,2013-03-10 22:32:00,
2013-03-10 17:42:00,49.0,49.0,29.57,East,83,3.0,6.0,100,0.00,,,0.00,,2013-03-10 22:42:00,
2013-03-10 17:53:00,49.0,49.0,29.59,South,174,0.0,0.0,100,0.00,,,0.00,,2013-03-10 22:53:00,
2013-03-10 18:02:00,49.0,49.0,29.62,North,0,0.0,0.0,100,0.00,,,0.00,,2013-03-10 23:02:00,
2013-03-10 18:12:00,49.0,49.0,29.62,SSW,203,6.0,7.0,100,0.00,,,0.00,,2013-03-10 23:12:00,
2013-03-10 18:22:00,49.0,49.0,29.62,SSW,203,6.0,7.0,100,0.00,,,0.00,,2013-03-10 23:22:00,
2013-03-10 18:32:00,49.0,49.0,29.61,North,0,0.0,0.0,100,0.00,,,0.00,,2013-03-10 23:32:00,
2013-03-10 18:42:00,49.0,49.0,29.61,North,0,0.0,0.0,100,0.00,,,0.00,,2013-03-10 23:42:00,
2013-03-10 18:52:00,49.0,49.0,29.62,SW,220,7.0,9.0,100,0.00,,,0.00,,2013-03-10 23:52:00,
2013-03-10 19:02:00,49.0,49.0,29.62,SW,220,7.0,9.0,100,0.00,,,0.00,,2013-03-11 00:02:00,
2013-03-10 19:12:00,49.0,49.0,29.62,SW,220,7.0,9.0,100,0.00,,,0.00,,2013-03-11 00:12:00,
2013-03-10 19:22:00,48.0,48.0,29.63,SSW,193,8.0,9.0,100,0.00,,,0.00,,2013-03-11 00:22:00,
2013-03-10 19:33:00,47.0,47.0,29.64,SSW,198,10.0,10.0,100,0.00,,,0.00,,2013-03-11 00:33:00,
2013-03-10 19:43:00,47.0,47.0,29.64,SSW,198,10.0,10.0,100,0.00,,,0.00,,2013-03-11 00:43:00,
2013-03-10 19:53:00,47.0,47.0,29.64,SSW,200,9.0,9.0,100,0.00,,,0.00,,2013-03-11 00:53:00,
2013-03-10 20:02:00,47.0,47.0,29.64,SSW,203,9.0,10.0,100,0.00,,,0.00,,2013-03-11 01:02:00,
2013-03-10 20:12:00,47.0,47.0,29.64,SSW,203,9.0,10.0,100,0.00,,,0.00,,2013-03-11 01:12:00,
2013-03-10 20:22:00,47.0,47.0,29.64,SSW,203,9.0,10.0,100,0.00,,,0.00,,2013-03-11 01:22:00,
2013-03-10 20:32:00,47.0,47.0,29.64,SSW,203,9.0,10.0,100,0.00,,,0.00,,2013-03-11 01:32:00,
2013-03-10 20:42:00,47.0,47.0,29.64,SSW,203,9.0,10.0,100,0.00,,,0.00,,2013-03-11 01:42:00,
2013-03-10 21:02:00,47.0,47.0,29.66,SSW,195,6.0,8.0,100,0.00,,,0.00,,2013-03-11 02:02:00,
2013-03-10 21:12:00,47.0,47.0,29.66,SSW,195,6.0,8.0,100,0.00,,,0.00,,2013-03-11 02:12:00,
2013-03-10 21:22:00,47.0,47.0,29.66,South,181,8.0,10.0,100,0.00,,,0.00,,2013-03-11 02:22:00,
2013-03-10 21:32:00,48.0,48.0,29.66,South,171,13.0,13.0,100,0.00,,,0.00,,2013-03-11 02:32:00,
2013-03-10 21:42:00,48.0,48.0,29.66,South,171,13.0,13.0,100,0.00,,,0.00,,2013-03-11 02:42:00,
2013-03-10 21:52:00,48.0,48.0,29.66,South,185,9.0,10.0,100,0.00,,,0.00,,2013-03-11 02:52:00,
2013-03-10 22:02:00,48.0,48.0,29.66,South,179,10.0,13.0,100,0.00,,,0.00,,2013-03-11 03:02:00,
2013-03-10 22:12:00,48.0,48.0,29.66,South,179,10.0,13.0,100,0.00,,,0.00,,2013-03-11 03:12:00,
2013-03-10 22:22:00,48.0,48.0,29.66,South,178,10.0,12.0,100,0.00,,,0.00,,2013-03-11 03:22:00,
2013-03-10 22:32:00,48.0,48.0,29.67,South,169,12.0,13.0,100,0.00,,,0.00,,2013-03-11 03:32:00,
2013-03-10 22:42:00,48.0,48.0,29.67,South,169,12.0,13.0,100,0.00,,,0.00,,2013-03-11 03:42:00,
2013-03-10 22:53:00,48.0,48.0,29.67,SSW,198,12.0,14.0,100,0.00,,,0.00,,2013-03-11 03:53:00,
2013-03-10 23:02:00,48.0,48.0,29.67,South,189,13.0,15.0,100,0.00,,,0.00,,2013-03-11 04:02:00,
2013-03-10 23:12:00,48.0,48.0,29.67,South,189,13.0,15.0,100,0.00,,,0.00,,2013-03-11 04:12:00,
2013-03-10 23:22:00,48.0,48.0,29.67,South,191,13.0,15.0,100,0.00,,,0.00,,2013-03-11 04:22:00,
2013-03-10 23:32:00,48.0,48.0,29.66,SSW,205,14.0,15.0,100,0.00,,,0.00,,2013-03-11 04:32:00,
2013-03-10 23:42:00,48.0,48.0,29.66,SSW,205,14.0,15.0,100,0.00,,,0.00,,2013-03-11 04:42:00,
2013-03-10 23:53:00,48.0,48.0,29.66,SSW,205,14.0,15.0,100,0.00,,,0.00,,2013-03-11 04:53:00,